createdAt,value
2022-12-17T00:02:28.593Z,95199.75
2022-12-17T00:05:13.997Z,95196.22
2022-12-17T00:07:59.314Z,95206.00
2022-12-17T00:10:44.726Z,95212.28
2022-12-17T00:13:39.007Z,95212.34
2022-12-17T00:16:25.642Z,95215.66
2022-12-17T00:19:10.109Z,95213.84
2022-12-17T00:21:56.382Z,95219.44
2022-12-17T00:24:41.854Z,95222.06
2022-12-17T00:27:27.389Z,95231.78
2022-12-17T00:30:13.985Z,95215.38
2022-12-17T00:32:59.520Z,95237.56
2022-12-17T00:35:44.894Z,95236.63
2022-12-17T00:38:36.129Z,95243.63
2022-12-17T00:41:21.746Z,95252.72
2022-12-17T00:44:07.062Z,95250.97
2022-12-17T00:46:53.577Z,95251.19
2022-12-17T00:49:38.983Z,95256.47
2022-12-17T00:52:24.376Z,95258.75
2022-12-17T00:55:10.147Z,95258.63
2022-12-17T00:57:55.336Z,95268.56
2022-12-17T01:00:41.535Z,95271.09
2022-12-17T01:03:30.638Z,95272.09
2022-12-17T01:06:20.106Z,95277.44
2022-12-17T01:09:05.422Z,95278.72
2022-12-17T01:11:50.764Z,95281.09
2022-12-17T01:14:37.542Z,95284.31
2022-12-17T01:17:22.871Z,95292.19
2022-12-17T01:20:09.717Z,95299.50
2022-12-17T01:22:54.267Z,95296.19
2022-12-17T01:25:42.011Z,95297.47
2022-12-17T01:28:27.103Z,95317.44
2022-12-17T01:31:15.005Z,95304.53
2022-12-17T01:34:00.116Z,95305.66
2022-12-17T01:36:46.557Z,95318.09
2022-12-17T01:39:31.695Z,95323.06
2022-12-17T01:42:17.155Z,95314.41
2022-12-17T01:45:07.346Z,95321.41
2022-12-17T01:47:57.457Z,95322.78
2022-12-17T01:50:44.843Z,95327.88
2022-12-17T01:53:34.008Z,95331.66
2022-12-17T01:56:19.437Z,95345.25
2022-12-17T01:59:05.696Z,95342.28
2022-12-17T02:01:50.948Z,95350.50
2022-12-17T02:04:36.936Z,95347.31
2022-12-17T02:07:43.848Z,95351.75
2022-12-17T02:10:41.554Z,95355.66
2022-12-17T02:13:34.389Z,95353.44
2022-12-17T02:16:27.390Z,95364.31
2022-12-17T02:19:17.702Z,95355.97
2022-12-17T02:22:06.081Z,95364.19
2022-12-17T02:24:58.953Z,95362.16
2022-12-17T02:27:46.829Z,95367.72
2022-12-17T02:30:32.598Z,95363.44
2022-12-17T02:33:19.179Z,95369.63
2022-12-17T02:36:11.597Z,95357.59
2022-12-17T02:38:56.918Z,95361.56
2022-12-17T02:41:47.391Z,95361.41
2022-12-17T02:44:38.938Z,95380.09
2022-12-17T02:47:28.564Z,95376.03
2022-12-17T02:50:14.887Z,95368.19
2022-12-17T02:53:04.619Z,95370.06
2022-12-17T02:55:50.468Z,95383.03
2022-12-17T02:58:36.046Z,95382.28
2022-12-17T03:01:24.279Z,95381.13
2022-12-17T03:04:09.477Z,95384.69
2022-12-17T03:06:54.890Z,95382.06
2022-12-17T03:09:40.037Z,95394.44
2022-12-17T03:12:37.714Z,95393.69
2022-12-17T03:15:23.707Z,95404.97
2022-12-17T03:18:10.308Z,95406.69
2022-12-17T03:20:55.847Z,95404.41
2022-12-17T03:23:41.251Z,95414.63
2022-12-17T03:26:41.172Z,95413.50
2022-12-17T03:29:26.612Z,95410.25
2022-12-17T03:32:12.069Z,95414.00
2022-12-17T03:34:58.766Z,95414.56
2022-12-17T03:37:44.113Z,95421.88
2022-12-17T03:40:29.952Z,95408.91
2022-12-17T03:43:15.396Z,95423.28
2022-12-17T03:46:06.207Z,95420.13
2022-12-17T03:48:51.469Z,95423.16
2022-12-17T03:51:38.158Z,95427.56
2022-12-17T03:54:23.818Z,95433.19
2022-12-17T03:57:14.509Z,95429.78
2022-12-17T04:00:01.190Z,95430.84
2022-12-17T04:02:46.675Z,95430.75
2022-12-17T04:05:32.147Z,95431.50
2022-12-17T04:08:18.552Z,95433.53
2022-12-17T04:11:04.061Z,95437.19
2022-12-17T04:13:49.226Z,95439.00
2022-12-17T04:16:34.523Z,95444.78
2022-12-17T04:19:19.875Z,95445.34
2022-12-17T04:22:05.461Z,95451.56
2022-12-17T04:24:52.117Z,95447.63
2022-12-17T04:27:37.284Z,95461.41
2022-12-17T04:30:23.779Z,95459.41
2022-12-17T04:33:08.830Z,95473.63
2022-12-17T04:36:08.914Z,95471.38
2022-12-17T04:38:54.290Z,95475.81
2022-12-17T04:41:41.066Z,95475.69
2022-12-17T04:44:26.498Z,95479.91
2022-12-17T04:47:11.696Z,95489.31
2022-12-17T04:49:56.889Z,95490.53
2022-12-17T04:52:42.203Z,95486.94
2022-12-17T04:55:27.593Z,95492.72
2022-12-17T04:58:19.920Z,95491.13
2022-12-17T05:01:05.624Z,95490.69
2022-12-17T05:03:50.980Z,95498.41
2022-12-17T05:06:36.264Z,95511.16
2022-12-17T05:09:23.677Z,95512.59
2022-12-17T05:12:09.150Z,95518.09
2022-12-17T05:14:55.894Z,95524.81
2022-12-17T05:17:41.033Z,95529.34
2022-12-17T05:20:26.983Z,95528.38
2022-12-17T05:23:12.107Z,95533.25
2022-12-17T05:25:57.554Z,95543.28
2022-12-17T05:28:39.231Z,95540.66
2022-12-17T05:31:25.942Z,95547.75
2022-12-17T05:34:11.168Z,95549.38
2022-12-17T05:36:56.283Z,95546.72
2022-12-17T05:39:41.660Z,95555.66
2022-12-17T05:42:26.918Z,95565.16
2022-12-17T05:45:12.435Z,95555.88
2022-12-17T05:47:58.977Z,95571.38
2022-12-17T05:50:44.347Z,95564.69
2022-12-17T05:53:44.281Z,95566.31
2022-12-17T05:56:29.696Z,95569.50
2022-12-17T05:59:15.047Z,95576.69
2022-12-17T06:02:00.552Z,95589.22
2022-12-17T06:04:46.243Z,95584.88
2022-12-17T06:07:31.716Z,95590.19
2022-12-17T06:10:16.769Z,95589.97
2022-12-17T06:13:02.270Z,95582.81
2022-12-17T06:15:47.733Z,95583.19
2022-12-17T06:18:32.882Z,95591.16
2022-12-17T06:21:19.364Z,95591.56
2022-12-17T06:24:04.764Z,95596.59
2022-12-17T06:26:50.257Z,95610.59
2022-12-17T06:29:35.528Z,95610.63
2022-12-17T06:32:20.981Z,95633.63
2022-12-17T06:35:06.310Z,95626.03
2022-12-17T06:37:52.994Z,95613.34
2022-12-17T06:40:38.059Z,95626.94
2022-12-17T06:43:23.453Z,95628.53
2022-12-17T06:46:10.789Z,95642.47
2022-12-17T06:48:56.444Z,95642.28
2022-12-17T06:51:42.146Z,95650.25
2022-12-17T06:54:28.992Z,95655.94
2022-12-17T06:57:14.268Z,95666.00
2022-12-17T06:59:59.609Z,95667.75
2022-12-17T07:02:45.380Z,95664.44
2022-12-17T07:05:30.710Z,95684.53
2022-12-17T07:08:16.674Z,95668.13
2022-12-17T07:11:03.755Z,95680.78
2022-12-17T07:13:48.978Z,95682.63
2022-12-17T07:16:34.586Z,95684.94
2022-12-17T07:19:25.332Z,95683.75
2022-12-17T07:22:12.317Z,95691.56
2022-12-17T07:24:57.678Z,95688.66
2022-12-17T07:27:44.302Z,95692.94
2022-12-17T07:30:30.641Z,95689.97
2022-12-17T07:33:19.117Z,95691.47
2022-12-17T07:36:04.561Z,95691.81
2022-12-17T07:38:49.847Z,95695.81
2022-12-17T07:41:35.492Z,95705.00
2022-12-17T07:44:23.583Z,95705.31
2022-12-17T07:47:09.169Z,95711.16
2022-12-17T07:49:54.992Z,95724.56
2022-12-17T07:52:40.413Z,95709.06
2022-12-17T07:55:26.333Z,95722.28
2022-12-17T07:58:17.331Z,95730.06
2022-12-17T08:01:04.073Z,95729.25
2022-12-17T08:03:49.156Z,95726.34
2022-12-17T08:06:35.017Z,95723.84
2022-12-17T08:09:20.595Z,95731.88
2022-12-17T08:12:05.919Z,95728.75
2022-12-17T08:14:51.544Z,95722.88
2022-12-17T08:17:37.963Z,95726.28
2022-12-17T08:20:24.654Z,95745.94
2022-12-17T08:23:10.006Z,95747.72
2022-12-17T08:25:51.632Z,95754.25
2022-12-17T08:28:51.871Z,95749.75
2022-12-17T08:31:37.261Z,95758.19
2022-12-17T08:34:24.307Z,95763.63
2022-12-17T08:37:09.699Z,95766.75
2022-12-17T08:39:55.398Z,95768.94
2022-12-17T08:42:40.875Z,95769.84
2022-12-17T08:45:27.237Z,95775.50
2022-12-17T08:48:12.673Z,95762.28
2022-12-17T08:50:59.203Z,95777.56
2022-12-17T08:53:44.463Z,95783.03
2022-12-17T08:56:29.967Z,95779.44
2022-12-17T08:59:20.700Z,95774.03
2022-12-17T09:02:06.088Z,95778.16
2022-12-17T09:04:51.540Z,95779.56
2022-12-17T09:07:34.549Z,95784.56
2022-12-17T09:10:20.093Z,95780.25
2022-12-17T09:13:05.472Z,95786.38
2022-12-17T09:15:51.153Z,95794.88
2022-12-17T09:18:37.619Z,95795.56
2022-12-17T09:21:23.284Z,95795.84
2022-12-17T09:24:10.139Z,95803.47
2022-12-17T09:26:55.594Z,95806.47
2022-12-17T09:29:40.959Z,95806.94
2022-12-17T09:32:26.510Z,95806.41
2022-12-17T09:35:11.826Z,95816.09
2022-12-17T09:37:57.265Z,95822.16
2022-12-17T09:40:43.892Z,95821.91
2022-12-17T09:43:38.725Z,95822.69
2022-12-17T09:46:29.607Z,95814.69
2022-12-17T09:49:20.353Z,95819.41
2022-12-17T09:52:05.706Z,95817.78
2022-12-17T09:55:00.781Z,95822.81
2022-12-17T09:57:51.928Z,95827.34
2022-12-17T10:00:39.395Z,95823.91
2022-12-17T10:03:30.579Z,95831.16
2022-12-17T10:06:22.484Z,95830.16
2022-12-17T10:09:15.704Z,95835.91
2022-12-17T10:12:01.001Z,95828.13
2022-12-17T10:14:47.956Z,95831.06
2022-12-17T10:17:36.864Z,95828.47
2022-12-17T10:20:32.682Z,95824.44
2022-12-17T10:23:18.127Z,95826.94
2022-12-17T10:26:05.937Z,95823.09
2022-12-17T10:28:51.506Z,95825.53
2022-12-17T10:31:36.674Z,95819.72
2022-12-17T10:34:25.861Z,95830.78
2022-12-17T10:37:11.934Z,95840.16
2022-12-17T10:39:59.182Z,95848.47
2022-12-17T10:42:46.229Z,95850.38
2022-12-17T10:45:57.344Z,95860.22
2022-12-17T10:48:46.192Z,95852.88
2022-12-17T10:51:39.050Z,95856.41
2022-12-17T10:54:31.866Z,95852.56
2022-12-17T10:57:20.784Z,95851.84
2022-12-17T11:00:08.184Z,95854.28
2022-12-17T11:02:53.633Z,95856.22
2022-12-17T11:05:45.519Z,95861.72
2022-12-17T11:08:33.673Z,95861.72
2022-12-17T11:11:22.430Z,95855.06
2022-12-17T11:14:10.220Z,95856.72
2022-12-17T11:17:01.754Z,95858.00
2022-12-17T11:20:10.754Z,95856.13
2022-12-17T11:23:02.998Z,95845.50
2022-12-17T11:25:58.070Z,95852.97
2022-12-17T11:28:51.822Z,95853.91
2022-12-17T11:32:03.607Z,95846.59
2022-12-17T11:35:01.093Z,95855.81
2022-12-17T11:37:56.007Z,95857.66
2022-12-17T11:40:52.471Z,95857.25
2022-12-17T11:43:45.801Z,95854.59
2022-12-17T11:46:42.475Z,95850.75
2022-12-17T11:49:40.732Z,95842.16
2022-12-17T11:52:35.242Z,95853.94
2022-12-17T11:55:34.045Z,95837.41
2022-12-17T11:58:36.392Z,95851.19
2022-12-17T12:01:32.064Z,95858.75
2022-12-17T12:04:29.132Z,95850.47
2022-12-17T12:07:25.104Z,95854.78
2022-12-17T12:10:16.080Z,95858.16
2022-12-17T12:13:13.102Z,95860.25
2022-12-17T12:16:10.918Z,95867.47
2022-12-17T12:19:05.000Z,95864.47
2022-12-17T12:22:09.554Z,95855.91
2022-12-17T12:25:11.615Z,95847.50
2022-12-17T12:28:03.974Z,95851.13
2022-12-17T12:30:57.722Z,95852.03
2022-12-17T12:33:52.613Z,95845.75
2022-12-17T12:36:40.538Z,95857.09
2022-12-17T12:39:31.664Z,95857.09
2022-12-17T12:42:21.689Z,95851.22
2022-12-17T12:45:17.170Z,95854.19
2022-12-17T12:48:09.412Z,95857.75
2022-12-17T12:51:07.358Z,95858.28
2022-12-17T12:53:52.748Z,95855.84
2022-12-17T12:56:51.741Z,95859.47
2022-12-17T12:59:47.087Z,95861.66
2022-12-17T13:02:45.625Z,95852.53
2022-12-17T13:05:35.473Z,95869.28
2022-12-17T13:08:18.638Z,95867.41
2022-12-17T13:10:46.913Z,95859.78
2022-12-17T13:13:26.858Z,95862.78
2022-12-17T13:15:56.257Z,95863.84
2022-12-17T13:18:29.787Z,95870.16
2022-12-17T13:21:00.408Z,95857.91
2022-12-17T13:23:35.410Z,95865.03
2022-12-17T13:26:24.423Z,95856.34
2022-12-17T13:29:12.477Z,95876.06
2022-12-17T13:32:02.225Z,95869.94
2022-12-17T13:34:41.876Z,95883.75
2022-12-17T13:37:19.305Z,95879.50
2022-12-17T13:39:59.074Z,95874.97
2022-12-17T13:42:29.755Z,95886.38
2022-12-17T13:44:58.982Z,95888.97
2022-12-17T13:47:28.746Z,95892.16
2022-12-17T13:50:32.277Z,95886.22
2022-12-17T13:52:46.332Z,95890.53
2022-12-17T13:55:21.072Z,95900.91
2022-12-17T13:57:51.571Z,95894.94
2022-12-17T14:00:22.307Z,95901.94
2022-12-17T14:02:50.953Z,95916.28
2022-12-17T14:05:28.667Z,95916.06
2022-12-17T14:07:59.600Z,95915.94
2022-12-17T14:10:31.067Z,95917.63
2022-12-17T14:13:06.574Z,95927.44
2022-12-17T14:15:35.627Z,95927.75
2022-12-17T14:18:03.852Z,95927.53
2022-12-17T14:20:33.469Z,95928.50
2022-12-17T14:23:04.424Z,95931.31
2022-12-17T14:25:37.899Z,95932.97
2022-12-17T14:28:08.274Z,95936.91
2022-12-17T14:30:46.373Z,95931.66
2022-12-17T14:33:28.717Z,95933.78
2022-12-17T14:36:02.015Z,95940.81
2022-12-17T14:38:38.800Z,95944.75
2022-12-17T14:41:26.660Z,95940.75
2022-12-17T14:43:59.829Z,95939.66
2022-12-17T14:46:29.903Z,95943.75
2022-12-17T14:49:05.837Z,95943.16
2022-12-17T14:51:37.643Z,95937.91
2022-12-17T14:54:19.510Z,95944.13
2022-12-17T14:56:51.961Z,95935.84
2022-12-17T14:59:24.393Z,95946.19
2022-12-17T15:01:56.252Z,95951.09
2022-12-17T15:04:24.653Z,95952.00
2022-12-17T15:06:55.577Z,95958.31
2022-12-17T15:09:23.541Z,95958.94
2022-12-17T15:11:52.741Z,95957.69
2022-12-17T15:14:20.490Z,95960.28
2022-12-17T15:16:48.335Z,95963.66
2022-12-17T15:19:16.175Z,95963.31
2022-12-17T15:21:43.933Z,95974.16
2022-12-17T15:24:15.494Z,95970.41
2022-12-17T15:26:43.294Z,95976.56
2022-12-17T15:29:12.431Z,95976.31
2022-12-17T15:31:40.429Z,95979.53
2022-12-17T15:34:08.249Z,95979.34
2022-12-17T15:36:36.121Z,95981.41
2022-12-17T15:39:06.182Z,95982.41
2022-12-17T15:41:47.847Z,95985.25
2022-12-17T15:44:16.949Z,95990.44
2022-12-17T15:46:44.894Z,95990.16
2022-12-17T15:49:12.669Z,95980.38
2022-12-17T15:51:40.440Z,95987.47
2022-12-17T15:54:08.217Z,95988.22
2022-12-17T15:56:37.168Z,95984.72
2022-12-17T15:59:05.005Z,95985.22
2022-12-17T16:01:34.261Z,95989.66
2022-12-17T16:04:02.117Z,95988.84
2022-12-17T16:06:29.852Z,95996.34
2022-12-17T16:08:57.584Z,96000.66
2022-12-17T16:11:25.330Z,95996.47
2022-12-17T16:13:55.102Z,96005.50
2022-12-17T16:16:23.033Z,96005.34
2022-12-17T16:18:53.223Z,96003.88
2022-12-17T16:21:21.029Z,95996.53
2022-12-17T16:23:48.777Z,95990.19
2022-12-17T16:26:16.575Z,95981.50
2022-12-17T16:28:44.389Z,95989.38
2022-12-17T16:31:14.684Z,95987.31
2022-12-17T16:33:44.307Z,95999.22
2022-12-17T16:36:15.573Z,95995.19
2022-12-17T16:38:45.475Z,95991.00
2022-12-17T16:41:14.797Z,95987.41
2022-12-17T16:43:43.240Z,95990.38
2022-12-17T16:46:26.454Z,95990.53
2022-12-17T16:48:55.104Z,95986.59
2022-12-17T16:51:29.582Z,95983.56
2022-12-17T16:53:58.395Z,95994.59
2022-12-17T16:56:28.888Z,96000.41
2022-12-17T16:58:56.884Z,95996.72
2022-12-17T17:01:27.952Z,95999.22
2022-12-17T17:03:56.176Z,95995.09
2022-12-17T17:06:31.729Z,95998.50
2022-12-17T17:09:04.296Z,95999.84
2022-12-17T17:11:32.328Z,95993.06
2022-12-17T17:14:00.543Z,95991.25
2022-12-17T17:16:28.904Z,96017.25
2022-12-17T17:18:57.034Z,96016.25
2022-12-17T17:21:29.126Z,96020.00
2022-12-17T17:23:59.738Z,96024.06
2022-12-17T17:26:29.162Z,96032.16
2022-12-17T17:28:57.246Z,96026.63
2022-12-17T17:31:46.416Z,96027.53
2022-12-17T17:34:15.665Z,96020.91
2022-12-17T17:36:44.887Z,96031.28
2022-12-17T17:39:12.639Z,96036.22
2022-12-17T17:41:40.455Z,96031.09
2022-12-17T17:44:09.960Z,96039.94
2022-12-17T17:46:38.492Z,96034.03
2022-12-17T17:49:08.758Z,96040.88
2022-12-17T17:52:08.536Z,96044.28
2022-12-17T17:54:27.940Z,96049.38
2022-12-17T17:56:56.479Z,96045.00
2022-12-17T17:59:30.933Z,96045.09
2022-12-17T18:02:01.124Z,96048.44
2022-12-17T18:04:29.707Z,96056.78
2022-12-17T18:09:46.710Z,96045.72
2022-12-17T18:12:31.968Z,96043.22
2022-12-17T18:15:17.240Z,96047.41
2022-12-17T18:17:47.063Z,96043.38
2022-12-17T18:20:15.156Z,96051.72
2022-12-17T18:22:46.817Z,96057.88
2022-12-17T18:25:16.294Z,96057.53
2022-12-17T18:27:44.250Z,96061.75
2022-12-17T18:30:12.701Z,96055.28
2022-12-17T18:32:40.451Z,96065.06
2022-12-17T18:35:09.220Z,96052.06
2022-12-17T18:37:37.016Z,96084.13
2022-12-17T18:40:05.108Z,96088.03
2022-12-17T18:42:51.829Z,96086.94
2022-12-17T18:45:19.688Z,96072.75
2022-12-17T18:47:47.533Z,96085.66
2022-12-17T18:50:15.322Z,96083.81
2022-12-17T18:52:43.068Z,96064.66
2022-12-17T18:55:10.846Z,96080.59
2022-12-17T18:57:39.960Z,96077.94
2022-12-17T19:00:10.515Z,96081.72
2022-12-17T19:02:38.463Z,96091.41
2022-12-17T19:05:06.783Z,96086.03
2022-12-17T19:07:34.607Z,96098.50
2022-12-17T19:10:02.353Z,96085.78
2022-12-17T19:12:30.107Z,96090.81
2022-12-17T19:15:00.380Z,96083.84
2022-12-17T19:17:28.105Z,96093.06
2022-12-17T19:19:55.872Z,96090.97
2022-12-17T19:22:23.673Z,96087.50
2022-12-17T19:24:51.559Z,96102.97
2022-12-17T19:27:19.365Z,96091.34
2022-12-17T19:29:49.683Z,96090.44
2022-12-17T19:32:19.253Z,96096.81
2022-12-17T19:34:47.004Z,96095.59
2022-12-17T19:37:14.785Z,96097.63
2022-12-17T19:39:42.629Z,96102.22
2022-12-17T19:42:24.622Z,96093.22
2022-12-17T19:44:56.592Z,96101.53
2022-12-17T19:47:25.873Z,96103.72
2022-12-17T19:49:53.777Z,96101.75
2022-12-17T19:52:21.623Z,96114.34
2022-12-17T19:54:49.972Z,96115.16
2022-12-17T19:57:17.845Z,96118.28
2022-12-17T19:59:45.761Z,96117.19
2022-12-17T20:02:15.617Z,96114.66
2022-12-17T20:04:45.092Z,96119.94
2022-12-17T20:07:12.905Z,96112.50
2022-12-17T20:09:44.015Z,96110.59
2022-12-17T20:12:12.056Z,96109.75
2022-12-17T20:14:39.873Z,96109.38
2022-12-17T20:17:07.856Z,96112.19
2022-12-17T20:19:35.695Z,96110.34
2022-12-17T20:22:06.262Z,96107.19
2022-12-17T20:24:34.162Z,96121.88
2022-12-17T20:27:02.261Z,96121.97
2022-12-17T20:29:30.338Z,96121.78
2022-12-17T20:31:58.412Z,96127.44
2022-12-17T20:34:26.409Z,96134.00
2022-12-17T20:36:54.634Z,96128.50
2022-12-17T20:39:27.674Z,96132.22
2022-12-17T20:41:56.213Z,96131.16
2022-12-17T20:44:23.987Z,96130.50
2022-12-17T20:46:51.814Z,96133.75
2022-12-17T20:49:19.738Z,96133.75
2022-12-17T20:51:47.632Z,96129.78
2022-12-17T20:54:15.391Z,96133.19
2022-12-17T20:56:44.689Z,96133.31
2022-12-17T20:59:15.685Z,96135.50
2022-12-17T21:01:43.804Z,96141.59
2022-12-17T21:04:13.023Z,96147.72
2022-12-17T21:06:42.493Z,96127.94
2022-12-17T21:09:11.676Z,96129.94
2022-12-17T21:11:40.897Z,96126.31
2022-12-17T21:14:13.189Z,96132.63
2022-12-17T21:16:42.517Z,96136.00
2022-12-17T21:19:13.809Z,96125.41
2022-12-17T21:21:41.832Z,96134.28
2022-12-17T21:24:10.470Z,96135.50
2022-12-17T21:26:40.363Z,96137.28
2022-12-17T21:29:11.243Z,96143.53
2022-12-17T21:31:41.341Z,96144.41
2022-12-17T21:34:12.496Z,96143.44
2022-12-17T21:36:40.832Z,96148.69
2022-12-17T21:39:09.911Z,96145.97
2022-12-17T21:41:40.158Z,96137.41
2022-12-17T21:44:15.670Z,96138.38
2022-12-17T21:46:49.918Z,96148.75
2022-12-17T21:49:18.205Z,96135.19
2022-12-17T21:51:46.300Z,96130.25
2022-12-17T21:54:19.387Z,96137.69
2022-12-17T21:56:48.485Z,96131.00
2022-12-17T21:59:18.015Z,96141.91
2022-12-17T22:01:45.953Z,96136.50
2022-12-17T22:04:13.897Z,96146.91
2022-12-17T22:06:47.699Z,96145.28
2022-12-17T22:09:33.533Z,96154.84
2022-12-17T22:12:27.215Z,96139.97
2022-12-17T22:14:56.397Z,96147.91
2022-12-17T22:17:24.666Z,96140.88
2022-12-17T22:19:52.425Z,96139.56
2022-12-17T22:22:20.234Z,96139.56
2022-12-17T22:24:48.023Z,96140.13
2022-12-17T22:27:16.080Z,96147.00
2022-12-17T22:30:01.228Z,96146.66
2022-12-17T22:32:47.845Z,96156.84
2022-12-17T22:36:05.591Z,96158.97
2022-12-17T22:41:43.107Z,96166.38
2022-12-17T22:44:34.119Z,96165.56
2022-12-17T22:44:51.495Z,96154.91
2022-12-17T22:46:28.546Z,96158.00
2022-12-17T22:48:58.419Z,96158.41
2022-12-17T22:51:30.013Z,96157.44
2022-12-17T22:54:08.625Z,96160.41
2022-12-17T22:57:32.482Z,96155.16
2022-12-17T22:59:25.057Z,96162.59
2022-12-17T23:01:53.978Z,96162.44
2022-12-17T23:04:23.386Z,96159.13
2022-12-17T23:06:51.241Z,96154.59
2022-12-17T23:09:20.169Z,96158.88
2022-12-17T23:11:49.267Z,96160.72
2022-12-17T23:14:17.977Z,96165.16
2022-12-17T23:16:46.206Z,96157.38
2022-12-17T23:19:14.187Z,96156.34
2022-12-17T23:21:43.361Z,96167.50
2022-12-17T23:24:11.137Z,96162.84
2022-12-17T23:26:39.896Z,96174.47
2022-12-17T23:29:10.890Z,96165.19
2022-12-17T23:31:41.087Z,96149.75
2022-12-17T23:34:09.765Z,96152.28
2022-12-17T23:36:37.978Z,96152.88
2022-12-17T23:39:07.526Z,96151.91
2022-12-17T23:41:35.380Z,96151.13
2022-12-17T23:44:04.482Z,96149.25
2022-12-17T23:46:32.646Z,96162.59
2022-12-17T23:49:00.557Z,96150.16
2022-12-17T23:51:29.240Z,96155.66
2022-12-17T23:53:56.996Z,96153.16
2022-12-17T23:56:27.924Z,96160.41
2022-12-17T23:58:58.197Z,96144.91
